Terminal Aerodrome Forecast
Issued by NWS

Home | Current Version | Previous Version | Text Only | Print | Product List | Glossary On
Versions: 1 2 3 4 5 6 7 8 9 10 11 12 13 14 15 16 17 18
000
FTUS46 KLOX 012300
TAFLGB
TAF
KLGB 012335Z 0200/0224 28008KT P6SM SCT200
     FM020400 VRB03KT P6SM SCT200
     FM021200 VRB03KT 5SM BR BKN008
     FM021800 18007KT P6SM SKC=

USA.gov is the U.S. government's official web portal to all federal, state and local government web resources and services.